createdAt,value
2018-05-25T00:01:26.739Z,72.47
2018-05-25T00:03:54.389Z,71.97
2018-05-25T00:06:21.913Z,71.31
2018-05-25T00:08:49.435Z,72.02
2018-05-25T00:11:16.998Z,72.61
2018-05-25T00:13:44.526Z,71.83
2018-05-25T00:16:12.050Z,71.84
2018-05-25T00:18:40.006Z,72.72
2018-05-25T00:21:07.539Z,71.65
2018-05-25T00:23:35.067Z,71.59
2018-05-25T00:26:02.609Z,72.69
2018-05-25T00:28:30.125Z,72.65
2018-05-25T00:30:57.709Z,72.74
2018-05-25T00:33:25.238Z,73.54
2018-05-25T00:35:52.762Z,73.66
2018-05-25T00:38:20.320Z,72.99
2018-05-25T00:40:47.854Z,73.80
2018-05-25T00:43:15.448Z,73.30
2018-05-25T00:45:42.978Z,73.16
2018-05-25T00:48:10.501Z,73.38
2018-05-25T00:50:38.051Z,73.12
2018-05-25T00:53:05.569Z,73.47
2018-05-25T00:55:39.822Z,73.58
2018-05-25T00:58:07.338Z,74.22
2018-05-25T01:00:34.917Z,74.24
2018-05-25T01:03:02.540Z,75.57
2018-05-25T01:05:30.077Z,76.32
2018-05-25T01:07:57.625Z,75.45
2018-05-25T01:10:25.149Z,75.45
2018-05-25T01:12:52.690Z,76.21
2018-05-25T01:15:20.213Z,76.05
2018-05-25T01:17:47.771Z,76.18
2018-05-25T01:20:15.290Z,76.69
2018-05-25T01:22:42.838Z,76.93
2018-05-25T01:25:10.395Z,76.87
2018-05-25T01:27:38.391Z,76.64
2018-05-25T01:30:05.909Z,76.90
2018-05-25T01:32:33.431Z,76.77
2018-05-25T01:35:00.974Z,76.68
2018-05-25T01:37:28.493Z,76.77
2018-05-25T01:39:56.449Z,77.32
2018-05-25T01:42:23.965Z,76.90
2018-05-25T01:44:51.826Z,76.69
2018-05-25T01:47:19.489Z,76.99
2018-05-25T01:49:47.011Z,77.08
2018-05-25T01:52:14.529Z,77.38
2018-05-25T01:54:42.088Z,77.28
2018-05-25T01:57:09.631Z,77.46
2018-05-25T01:59:37.174Z,77.35
2018-05-25T02:02:04.705Z,77.49
2018-05-25T02:04:32.245Z,77.68
2018-05-25T02:06:59.761Z,77.57
2018-05-25T02:09:27.426Z,77.93
2018-05-25T02:11:54.954Z,77.62
2018-05-25T02:14:22.469Z,77.68
2018-05-25T02:16:50.015Z,77.71
2018-05-25T02:19:17.545Z,77.72
2018-05-25T02:21:45.113Z,78.09
2018-05-25T02:24:12.633Z,78.65
2018-05-25T02:26:40.161Z,78.69
2018-05-25T02:29:08.129Z,77.68
2018-05-25T02:31:35.646Z,77.44
2018-05-25T02:34:03.166Z,78.12
2018-05-25T02:36:30.705Z,78.66
2018-05-25T02:38:58.260Z,78.77
2018-05-25T02:41:25.805Z,79.63
2018-05-25T02:43:53.557Z,78.21
2018-05-25T02:46:21.081Z,78.21
2018-05-25T02:48:48.611Z,77.60
2018-05-25T02:51:16.150Z,77.58
2018-05-25T02:53:43.706Z,77.51
2018-05-25T02:56:12.094Z,77.57
2018-05-25T02:58:39.622Z,77.68
2018-05-25T03:01:07.197Z,77.69
2018-05-25T03:03:34.723Z,78.14
2018-05-25T03:06:02.241Z,78.08
2018-05-25T03:08:29.805Z,78.08
2018-05-25T03:10:57.354Z,78.08
2018-05-25T03:13:24.868Z,78.53
2018-05-25T03:15:52.636Z,77.57
2018-05-25T03:18:20.182Z,78.12
2018-05-25T03:20:47.850Z,77.84
2018-05-25T03:23:15.379Z,77.73
2018-05-25T03:25:42.931Z,78.16
2018-05-25T03:28:10.506Z,77.80
2018-05-25T03:30:38.021Z,77.46
2018-05-25T03:33:05.537Z,77.74
2018-05-25T03:35:33.077Z,77.96
2018-05-25T03:38:00.604Z,77.26
2018-05-25T03:40:28.182Z,77.68
2018-05-25T03:42:55.726Z,78.38
2018-05-25T03:45:23.249Z,78.96
2018-05-25T03:47:50.798Z,79.19
2018-05-25T03:50:18.337Z,79.62
2018-05-25T03:52:45.859Z,78.38
2018-05-25T03:55:13.468Z,78.13
2018-05-25T03:57:40.994Z,77.34
2018-05-25T04:00:20.441Z,77.79
2018-05-25T04:02:47.957Z,77.32
2018-05-25T04:05:15.481Z,78.18
2018-05-25T04:07:43.021Z,77.25
2018-05-25T04:10:10.571Z,77.56
2018-05-25T04:12:38.090Z,77.44
2018-05-25T04:15:05.637Z,77.91
2018-05-25T04:17:33.190Z,77.62
2018-05-25T04:20:00.733Z,76.37
2018-05-25T04:22:28.298Z,76.30
2018-05-25T04:24:55.822Z,76.40
2018-05-25T04:27:23.347Z,75.93
2018-05-25T04:29:50.890Z,76.06
2018-05-25T04:32:18.414Z,76.91
2018-05-25T04:34:46.338Z,76.21
2018-05-25T04:37:13.872Z,76.25
2018-05-25T04:39:41.419Z,76.69
2018-05-25T04:42:09.065Z,76.72
2018-05-25T04:44:36.594Z,76.95
2018-05-25T04:47:04.113Z,76.54
2018-05-25T04:49:31.654Z,76.59
2018-05-25T04:51:59.193Z,77.58
2018-05-25T04:54:26.742Z,77.25
2018-05-25T04:56:54.335Z,76.49
2018-05-25T04:59:21.867Z,77.25
2018-05-25T05:01:49.395Z,76.98
2018-05-25T05:04:16.966Z,76.69
2018-05-25T05:06:44.833Z,76.99
2018-05-25T05:09:12.354Z,76.48
2018-05-25T05:11:39.887Z,76.65
2018-05-25T05:14:07.442Z,77.27
2018-05-25T05:16:34.961Z,76.54
2018-05-25T05:19:02.513Z,76.32
2018-05-25T05:21:30.033Z,76.62
2018-05-25T05:23:57.615Z,76.42
2018-05-25T05:26:25.157Z,76.43
2018-05-25T05:28:52.674Z,76.61
2018-05-25T05:31:20.218Z,76.34
2018-05-25T05:33:47.745Z,77.10
2018-05-25T05:36:15.294Z,76.15
2018-05-25T05:38:42.861Z,75.57
2018-05-25T05:41:10.377Z,75.86
2018-05-25T05:43:37.894Z,75.49
2018-05-25T05:46:05.441Z,74.94
2018-05-25T05:48:32.962Z,74.87
2018-05-25T05:51:00.534Z,75.23
2018-05-25T05:53:28.050Z,73.95
2018-05-25T05:55:55.569Z,75.09
2018-05-25T05:58:23.124Z,75.62
2018-05-25T06:00:50.655Z,74.81
2018-05-25T06:03:18.213Z,74.31
2018-05-25T06:05:45.766Z,73.87
2018-05-25T06:08:13.316Z,74.40
2018-05-25T06:10:40.838Z,75.57
2018-05-25T06:13:08.399Z,74.00
2018-05-25T06:15:35.945Z,73.66
2018-05-25T06:18:03.460Z,74.77
2018-05-25T06:20:31.178Z,74.11
2018-05-25T06:22:58.700Z,74.07
2018-05-25T06:25:26.256Z,73.89
2018-05-25T06:27:54.202Z,73.28
2018-05-25T06:30:21.722Z,72.97
2018-05-25T06:32:49.252Z,72.80
2018-05-25T06:35:16.803Z,72.58
2018-05-25T06:37:44.320Z,73.25
2018-05-25T06:40:11.876Z,72.89
2018-05-25T06:42:39.392Z,73.12
2018-05-25T06:45:07.048Z,72.17
2018-05-25T06:47:34.575Z,72.05
2018-05-25T06:50:02.101Z,71.90
2018-05-25T06:52:29.658Z,72.24
2018-05-25T06:54:57.208Z,71.21
2018-05-25T06:57:24.754Z,70.69
2018-05-25T06:59:52.273Z,70.79
2018-05-25T07:02:20.234Z,72.66
2018-05-25T07:04:47.758Z,70.35
2018-05-25T07:07:15.357Z,70.68
2018-05-25T07:09:42.896Z,70.19
2018-05-25T07:12:10.466Z,69.09
2018-05-25T07:14:37.994Z,70.60
2018-05-25T07:17:05.578Z,69.41
2018-05-25T07:19:33.105Z,68.51
2018-05-25T07:22:00.695Z,67.37
2018-05-25T07:24:28.211Z,69.22
2018-05-25T07:26:55.791Z,69.35
2018-05-25T07:29:23.310Z,67.60
2018-05-25T07:31:50.829Z,66.40
2018-05-25T07:34:18.374Z,67.06
2018-05-25T07:36:45.889Z,64.97
2018-05-25T07:39:13.451Z,66.20
2018-05-25T07:41:40.977Z,65.03
2018-05-25T07:44:08.526Z,64.94
2018-05-25T07:46:36.059Z,63.96
2018-05-25T07:49:03.605Z,64.77
2018-05-25T07:51:31.130Z,64.57
2018-05-25T07:53:59.065Z,63.53
2018-05-25T07:56:26.582Z,64.07
2018-05-25T07:58:54.101Z,62.93
2018-05-25T08:01:21.660Z,64.05
2018-05-25T08:03:49.182Z,63.99
2018-05-25T08:06:16.745Z,61.54
2018-05-25T08:08:44.281Z,61.74
2018-05-25T08:11:11.825Z,62.54
2018-05-25T08:13:39.402Z,60.57
2018-05-25T08:16:06.935Z,61.02
2018-05-25T08:18:34.466Z,60.95
2018-05-25T08:21:02.015Z,59.76
2018-05-25T08:23:29.544Z,59.84
2018-05-25T08:25:57.102Z,59.88
2018-05-25T08:28:24.623Z,59.00
2018-05-25T08:30:52.610Z,59.31
2018-05-25T08:33:20.138Z,58.29
2018-05-25T08:35:47.657Z,59.24
2018-05-25T08:38:15.197Z,56.63
2018-05-25T08:40:42.733Z,59.84
2018-05-25T08:43:10.283Z,59.21
2018-05-25T08:45:37.814Z,54.93
2018-05-25T08:48:05.574Z,57.59
2018-05-25T08:50:33.089Z,57.99
2018-05-25T08:53:00.622Z,58.92
2018-05-25T08:55:28.169Z,58.05
2018-05-25T08:57:55.867Z,58.68
2018-05-25T09:00:23.397Z,56.19
2018-05-25T09:02:50.922Z,55.15
2018-05-25T09:05:18.462Z,56.62
2018-05-25T09:07:45.997Z,54.88
2018-05-25T09:10:13.546Z,53.71
2018-05-25T09:12:41.288Z,53.35
2018-05-25T09:15:09.081Z,55.63
2018-05-25T09:17:36.596Z,56.62
2018-05-25T09:20:04.113Z,58.33
2018-05-25T09:22:31.657Z,57.24
2018-05-25T09:24:59.178Z,55.33
2018-05-25T09:27:26.726Z,55.41
2018-05-25T09:29:54.259Z,54.34
2018-05-25T09:32:22.315Z,55.21
2018-05-25T09:34:49.829Z,53.68
2018-05-25T09:37:17.355Z,55.01
2018-05-25T09:39:44.904Z,59.53
2018-05-25T09:42:12.430Z,57.20
2018-05-25T09:44:39.968Z,57.87
2018-05-25T09:47:07.540Z,54.37
2018-05-25T09:49:35.058Z,56.03
2018-05-25T09:52:02.595Z,57.45
2018-05-25T09:54:30.137Z,53.23
2018-05-25T09:57:01.462Z,52.31
2018-05-25T09:59:29.159Z,56.13
2018-05-25T10:01:56.673Z,54.82
2018-05-25T10:04:24.201Z,55.15
2018-05-25T10:06:51.771Z,58.01
2018-05-25T10:09:19.293Z,53.34
2018-05-25T10:11:46.847Z,55.16
2018-05-25T10:14:14.370Z,54.72
2018-05-25T10:16:41.894Z,57.30
2018-05-25T10:19:09.433Z,53.98
2018-05-25T10:21:36.988Z,56.40
2018-05-25T10:24:04.515Z,56.58
2018-05-25T10:26:32.506Z,56.41
2018-05-25T10:29:00.021Z,56.44
2018-05-25T10:31:27.542Z,55.27
2018-05-25T10:33:55.081Z,56.26
2018-05-25T10:36:22.602Z,57.10
2018-05-25T10:38:50.152Z,56.66
2018-05-25T10:41:17.718Z,56.52
2018-05-25T10:43:45.234Z,57.55
2018-05-25T10:46:12.758Z,55.34
2018-05-25T10:48:40.322Z,55.82
2018-05-25T10:51:07.846Z,53.25
2018-05-25T10:53:35.406Z,52.70
2018-05-25T10:56:02.981Z,55.16
2018-05-25T10:58:30.470Z,54.10
2018-05-25T11:00:58.020Z,54.40
2018-05-25T11:03:25.569Z,55.35
2018-05-25T11:05:53.108Z,54.91
2018-05-25T11:08:20.630Z,55.24
2018-05-25T11:10:48.175Z,56.42
2018-05-25T11:13:15.689Z,54.07
2018-05-25T11:15:43.244Z,55.18
2018-05-25T11:18:10.838Z,51.52
2018-05-25T11:20:38.353Z,52.59
2018-05-25T11:23:05.878Z,51.02
2018-05-25T11:25:33.427Z,50.77
2018-05-25T11:28:00.971Z,52.35
2018-05-25T11:30:28.495Z,51.92
2018-05-25T11:32:56.037Z,51.05
2018-05-25T11:35:23.577Z,54.06
2018-05-25T11:37:51.099Z,52.48
2018-05-25T11:40:18.987Z,53.33
2018-05-25T11:42:46.509Z,50.94
2018-05-25T11:45:14.031Z,51.23
2018-05-25T11:47:41.588Z,52.23
2018-05-25T11:50:09.168Z,52.44
2018-05-25T11:52:36.858Z,52.87
2018-05-25T11:55:04.376Z,51.62
2018-05-25T11:57:31.979Z,51.01
2018-05-25T11:59:59.888Z,51.88
2018-05-25T12:02:27.402Z,52.34
2018-05-25T12:04:54.924Z,51.26
2018-05-25T12:07:22.497Z,52.31
2018-05-25T12:09:50.019Z,51.64
2018-05-25T12:12:17.538Z,52.29
2018-05-25T12:14:45.113Z,50.88
2018-05-25T12:17:12.642Z,51.12
2018-05-25T12:19:40.158Z,49.45
2018-05-25T12:22:08.104Z,50.27
2018-05-25T12:24:35.630Z,48.60
2018-05-25T12:27:03.169Z,49.47
2018-05-25T12:29:31.069Z,49.37
2018-05-25T12:31:58.597Z,49.52
2018-05-25T12:34:26.126Z,50.11
2018-05-25T12:36:53.687Z,51.73
2018-05-25T12:39:21.215Z,49.74
2018-05-25T12:41:48.767Z,49.37
2018-05-25T12:44:16.319Z,48.88
2018-05-25T12:46:43.879Z,48.90
2018-05-25T12:49:11.434Z,48.87
2018-05-25T12:51:38.953Z,46.29
2018-05-25T12:54:06.551Z,48.06
2018-05-25T12:56:34.069Z,48.07
2018-05-25T12:59:01.586Z,48.63
2018-05-25T13:01:29.551Z,47.94
2018-05-25T13:03:57.074Z,48.41
2018-05-25T13:06:24.598Z,47.14
2018-05-25T13:08:52.170Z,48.10
2018-05-25T13:11:19.693Z,47.82
2018-05-25T13:13:47.218Z,47.50
2018-05-25T13:16:14.767Z,49.54
2018-05-25T13:18:42.281Z,48.00
2018-05-25T13:21:09.836Z,49.52
2018-05-25T13:23:37.375Z,49.52
2018-05-25T13:26:05.154Z,47.79
2018-05-25T13:28:32.689Z,49.09
2018-05-25T13:31:00.213Z,48.24
2018-05-25T13:33:27.758Z,47.62
2018-05-25T13:35:55.273Z,48.14
2018-05-25T13:38:22.809Z,49.63
2018-05-25T13:40:50.325Z,49.57
2018-05-25T13:43:17.910Z,50.59
2018-05-25T13:45:45.425Z,51.48
2018-05-25T13:48:12.941Z,51.50
2018-05-25T13:50:40.481Z,50.30
2018-05-25T13:53:08.036Z,49.76
2018-05-25T13:55:35.558Z,49.94
2018-05-25T13:58:03.111Z,50.32
2018-05-25T14:00:30.673Z,49.36
2018-05-25T14:02:58.182Z,48.14
2018-05-25T14:05:25.712Z,47.18
2018-05-25T14:07:53.254Z,49.44
2018-05-25T14:10:20.769Z,50.66
2018-05-25T14:12:48.537Z,49.47
2018-05-25T14:15:16.048Z,47.85
2018-05-25T14:17:43.585Z,48.02
2018-05-25T14:20:11.124Z,47.37
2018-05-25T14:22:38.670Z,49.08
2018-05-25T14:25:06.219Z,50.22
2018-05-25T14:27:33.745Z,47.95
2018-05-25T14:30:01.257Z,45.92
2018-05-25T14:32:28.903Z,46.15
2018-05-25T14:34:56.426Z,48.99
2018-05-25T14:37:23.938Z,48.07
2018-05-25T14:39:51.485Z,47.77
2018-05-25T14:42:19.007Z,48.28
2018-05-25T14:44:46.561Z,47.82
2018-05-25T14:47:14.178Z,47.46
2018-05-25T14:49:41.713Z,48.46
2018-05-25T14:52:09.235Z,47.41
2018-05-25T14:54:36.757Z,46.49
2018-05-25T14:57:04.298Z,48.75
2018-05-25T14:59:31.863Z,48.80
2018-05-25T15:01:59.396Z,49.07
2018-05-25T15:04:27.381Z,48.62
2018-05-25T15:06:54.911Z,48.76
2018-05-25T15:09:22.429Z,48.55
2018-05-25T15:11:49.961Z,49.61
2018-05-25T15:14:17.488Z,49.16
2018-05-25T15:16:45.040Z,50.42
2018-05-25T15:19:12.549Z,48.30
2018-05-25T15:21:40.493Z,49.08
2018-05-25T15:24:08.018Z,48.33
2018-05-25T15:26:35.535Z,48.80
2018-05-25T15:29:03.077Z,48.27
2018-05-25T15:31:30.591Z,47.82
2018-05-25T15:33:58.162Z,48.93
2018-05-25T15:36:25.697Z,49.56
2018-05-25T15:38:53.202Z,49.96
2018-05-25T15:41:20.766Z,50.52
2018-05-25T15:43:48.291Z,52.26
2018-05-25T15:46:15.817Z,54.24
2018-05-25T15:48:43.364Z,56.39
2018-05-25T15:51:10.886Z,58.39
2018-05-25T15:53:38.445Z,57.83
2018-05-25T15:56:05.971Z,58.05
2018-05-25T15:58:33.493Z,57.63
2018-05-25T16:01:01.047Z,57.55
2018-05-25T16:03:28.565Z,57.95
2018-05-25T16:05:56.429Z,58.20
2018-05-25T16:08:24.876Z,58.86
2018-05-25T16:10:52.402Z,59.56
2018-05-25T16:13:19.948Z,61.12
2018-05-25T16:15:47.478Z,61.47
2018-05-25T16:18:15.198Z,62.49
2018-05-25T16:20:42.723Z,61.80
2018-05-25T16:23:10.238Z,62.86
2018-05-25T16:25:37.786Z,63.87
2018-05-25T16:28:05.313Z,64.79
2018-05-25T16:30:33.885Z,64.71
2018-05-25T16:33:01.415Z,65.63
2018-05-25T16:35:28.938Z,66.67
2018-05-25T16:37:56.478Z,66.28
2018-05-25T16:40:23.993Z,64.26
2018-05-25T16:42:51.533Z,64.18
2018-05-25T16:45:19.067Z,64.15
2018-05-25T16:47:46.609Z,64.47
2018-05-25T16:50:14.197Z,63.89
2018-05-25T16:52:41.717Z,64.10
2018-05-25T16:55:09.233Z,62.76
2018-05-25T16:57:36.773Z,63.07
2018-05-25T17:00:04.325Z,62.32
2018-05-25T17:02:31.846Z,62.22
2018-05-25T17:04:59.793Z,60.32
2018-05-25T17:07:27.266Z,59.64
2018-05-25T17:09:54.786Z,59.41
2018-05-25T17:12:22.737Z,56.54
2018-05-25T17:14:50.258Z,55.10
2018-05-25T17:17:17.795Z,56.50
2018-05-25T17:19:45.558Z,55.59
2018-05-25T17:22:13.086Z,54.59
2018-05-25T17:24:40.597Z,53.18
2018-05-25T17:27:08.129Z,52.98
2018-05-25T17:29:35.646Z,51.78
2018-05-25T17:32:03.185Z,52.25
2018-05-25T17:34:30.699Z,50.81
2018-05-25T17:36:58.365Z,50.90
2018-05-25T17:39:25.869Z,51.56
2018-05-25T17:41:53.379Z,50.95
2018-05-25T17:44:20.922Z,52.14
2018-05-25T17:46:48.429Z,51.14
2018-05-25T17:49:15.961Z,51.25
2018-05-25T17:51:43.483Z,50.72
2018-05-25T17:54:11.033Z,50.17
2018-05-25T17:56:38.560Z,50.14
2018-05-25T17:59:06.118Z,50.66
2018-05-25T18:01:33.625Z,51.65
2018-05-25T18:04:01.570Z,49.94
2018-05-25T18:06:29.077Z,49.41
2018-05-25T18:08:56.699Z,50.31
2018-05-25T18:11:24.280Z,50.46
2018-05-25T18:13:51.807Z,50.83
2018-05-25T18:16:19.322Z,50.72
2018-05-25T18:18:46.857Z,51.07
2018-05-25T18:21:14.374Z,51.80
2018-05-25T18:23:41.917Z,51.16
2018-05-25T18:26:09.433Z,50.42
2018-05-25T18:28:36.977Z,50.14
2018-05-25T18:31:04.510Z,50.78
2018-05-25T18:33:32.052Z,50.33
2018-05-25T18:35:59.576Z,50.36
2018-05-25T18:38:27.294Z,50.00
2018-05-25T18:40:54.831Z,50.95
2018-05-25T18:43:22.358Z,50.58
2018-05-25T18:45:50.012Z,51.89
2018-05-25T18:48:17.534Z,51.73
2018-05-25T18:50:45.060Z,51.48
2018-05-25T18:53:12.603Z,51.67
2018-05-25T18:55:40.286Z,51.67
2018-05-25T18:58:07.809Z,52.45
2018-05-25T19:00:35.326Z,52.79
2018-05-25T19:03:02.878Z,53.44
2018-05-25T19:05:30.404Z,53.02
2018-05-25T19:07:58.377Z,53.64
2018-05-25T19:10:25.901Z,54.20
2018-05-25T19:12:53.430Z,54.24
2018-05-25T19:15:21.102Z,52.98
2018-05-25T19:17:48.620Z,54.94
2018-05-25T19:20:16.138Z,55.56
2018-05-25T19:22:44.025Z,54.86
2018-05-25T19:25:11.541Z,56.76
2018-05-25T19:27:39.057Z,57.16
2018-05-25T19:30:06.594Z,57.70
2018-05-25T19:32:34.140Z,59.44
2018-05-25T19:35:01.674Z,60.45
2018-05-25T19:37:29.218Z,62.04
2018-05-25T19:39:56.763Z,64.77
2018-05-25T19:42:24.285Z,66.08
2018-05-25T19:44:51.846Z,66.86
2018-05-25T19:47:19.371Z,67.50
2018-05-25T19:49:46.894Z,67.83
2018-05-25T19:52:14.441Z,67.74
2018-05-25T19:54:42.118Z,68.04
2018-05-25T19:57:09.646Z,68.31
2018-05-25T19:59:37.171Z,68.29
2018-05-25T20:02:04.764Z,67.84
2018-05-25T20:04:32.290Z,68.52
2018-05-25T20:06:59.811Z,68.63
2018-05-25T20:09:27.359Z,67.90
2018-05-25T20:11:54.886Z,68.41
2018-05-25T20:14:22.439Z,68.62
2018-05-25T20:16:49.989Z,69.21
2018-05-25T20:19:17.509Z,69.25
2018-05-25T20:21:45.279Z,69.62
2018-05-25T20:24:12.801Z,69.71
2018-05-25T20:26:40.334Z,70.08
2018-05-25T20:29:07.999Z,70.35
2018-05-25T20:31:35.531Z,70.48
2018-05-25T20:34:03.054Z,69.37
2018-05-25T20:36:30.633Z,69.29
2018-05-25T20:38:58.164Z,69.05
2018-05-25T20:41:25.689Z,68.87
2018-05-25T20:43:53.638Z,69.15
2018-05-25T20:46:21.156Z,68.49
2018-05-25T20:48:48.673Z,68.73
2018-05-25T20:51:16.225Z,68.82
2018-05-25T20:53:43.814Z,68.31
2018-05-25T20:56:11.341Z,68.03
2018-05-25T20:58:38.872Z,67.70
2018-05-25T21:01:06.412Z,68.38
2018-05-25T21:03:33.932Z,69.31
2018-05-25T21:06:01.503Z,70.09
2018-05-25T21:08:29.025Z,70.27
2018-05-25T21:10:56.550Z,69.47
2018-05-25T21:13:24.099Z,68.67
2018-05-25T21:15:51.621Z,68.79
2018-05-25T21:18:19.574Z,68.39
2018-05-25T21:20:47.097Z,70.10
2018-05-25T21:23:14.622Z,70.43
2018-05-25T21:25:42.178Z,68.95
2018-05-25T21:28:09.737Z,68.90
2018-05-25T21:30:37.265Z,69.56
2018-05-25T21:33:04.814Z,69.73
2018-05-25T21:35:32.462Z,70.28
2018-05-25T21:37:59.986Z,70.54
2018-05-25T21:40:27.502Z,70.68
2018-05-25T21:42:55.061Z,70.64
2018-05-25T21:45:22.643Z,70.38
2018-05-25T21:47:50.175Z,69.04
2018-05-25T21:50:17.697Z,68.66
2018-05-25T21:52:45.247Z,69.45
2018-05-25T21:55:12.765Z,69.76
2018-05-25T21:57:40.314Z,66.85
2018-05-25T22:00:07.858Z,65.07
2018-05-25T22:02:35.403Z,64.58
2018-05-25T22:05:02.948Z,63.65
2018-05-25T22:07:30.489Z,63.23
2018-05-25T22:09:58.009Z,63.33
2018-05-25T22:12:25.550Z,63.17
2018-05-25T22:14:53.070Z,63.24
2018-05-25T22:17:20.613Z,62.92
2018-05-25T22:22:22.122Z,63.07
2018-05-25T22:24:49.641Z,63.16
2018-05-25T22:27:17.242Z,63.12
2018-05-25T22:29:44.791Z,63.14
2018-05-25T22:32:12.319Z,63.32
2018-05-25T22:34:39.861Z,63.38
2018-05-25T22:37:07.384Z,62.92
2018-05-25T22:39:34.961Z,63.00
2018-05-25T22:42:01.954Z,62.78
2018-05-25T22:44:41.410Z,63.03
2018-05-25T22:47:20.730Z,62.94
2018-05-25T22:49:59.998Z,62.64
2018-05-25T22:52:32.498Z,62.59
2018-05-25T22:55:00.208Z,62.65
2018-05-25T22:57:27.738Z,62.90
2018-05-25T22:59:55.262Z,62.54
2018-05-25T23:02:22.808Z,62.57
2018-05-25T23:04:50.335Z,62.49
2018-05-25T23:07:17.890Z,62.52
2018-05-25T23:09:45.409Z,63.02
2018-05-25T23:12:13.420Z,62.55
2018-05-25T23:14:40.945Z,62.42
2018-05-25T23:17:08.470Z,62.28
2018-05-25T23:19:36.010Z,62.14
2018-05-25T23:22:03.529Z,61.76
2018-05-25T23:24:31.487Z,61.59
2018-05-25T23:26:59.004Z,61.25
2018-05-25T23:29:26.533Z,61.18
2018-05-25T23:31:54.194Z,60.76
2018-05-25T23:34:21.711Z,60.45
2018-05-25T23:36:49.224Z,60.42
2018-05-25T23:39:16.777Z,59.88
2018-05-25T23:41:44.339Z,59.58
2018-05-25T23:44:11.892Z,59.23
2018-05-25T23:46:39.406Z,58.89
2018-05-25T23:49:06.936Z,58.47
2018-05-25T23:51:34.491Z,58.33
2018-05-25T23:54:02.071Z,58.32
2018-05-25T23:56:30.207Z,58.14
2018-05-25T23:58:57.733Z,58.22
